createdAt,value
2018-09-08T00:02:16.275Z,73.34
2018-09-08T00:04:52.313Z,74.81
2018-09-08T00:07:33.833Z,74.57
2018-09-08T00:10:11.312Z,75.38
2018-09-08T00:12:48.766Z,75.47
2018-09-08T00:15:29.760Z,75.88
2018-09-08T00:18:10.546Z,76.28
2018-09-08T00:20:52.098Z,75.99
2018-09-08T00:23:32.972Z,75.65
2018-09-08T00:26:13.797Z,75.78
2018-09-08T00:29:53.846Z,76.97
2018-09-08T00:32:29.730Z,79.45
2018-09-08T00:35:06.343Z,79.47
2018-09-08T00:37:42.168Z,78.74
2018-09-08T00:40:18.398Z,78.08
2018-09-08T00:42:54.185Z,79.33
2018-09-08T00:45:30.054Z,79.25
2018-09-08T00:48:06.599Z,79.88
2018-09-08T00:50:42.483Z,78.18
2018-09-08T00:53:18.236Z,79.53
2018-09-08T00:55:53.929Z,78.50
2018-09-08T00:58:29.666Z,78.08
2018-09-08T01:01:05.650Z,78.72
2018-09-08T01:03:41.500Z,77.93
2018-09-08T01:06:17.364Z,77.67
2018-09-08T01:08:53.249Z,76.91
2018-09-08T01:11:29.371Z,76.52
2018-09-08T01:14:07.045Z,76.76
2018-09-08T01:16:42.858Z,76.89
2018-09-08T01:19:18.725Z,75.42
2018-09-08T01:21:54.642Z,76.68
2018-09-08T01:24:30.485Z,78.32
2018-09-08T01:27:06.239Z,78.62
2018-09-08T01:29:42.571Z,78.91
2018-09-08T01:32:18.407Z,78.39
2018-09-08T01:34:54.269Z,77.70
2018-09-08T01:37:30.241Z,77.34
2018-09-08T01:40:07.593Z,75.74
2018-09-08T01:42:43.379Z,75.83
2018-09-08T01:45:19.068Z,75.62
2018-09-08T01:47:54.844Z,76.06
2018-09-08T01:50:30.753Z,76.55
2018-09-08T01:53:06.629Z,77.33
2018-09-08T01:55:42.351Z,77.30
2018-09-08T01:58:18.869Z,78.22
2018-09-08T02:00:54.638Z,79.38
2018-09-08T02:03:30.386Z,80.01
2018-09-08T02:06:06.251Z,79.04
2018-09-08T02:08:42.987Z,79.22
2018-09-08T02:11:18.684Z,79.51
2018-09-08T02:13:54.535Z,80.95
2018-09-08T02:16:30.351Z,80.94
2018-09-08T02:19:06.366Z,81.45
2018-09-08T02:21:43.021Z,81.84
2018-09-08T02:24:18.742Z,81.92
2018-09-08T02:26:54.410Z,79.89
2018-09-08T02:29:30.506Z,79.23
2018-09-08T02:32:10.503Z,79.28
2018-09-08T02:34:46.471Z,79.63
2018-09-08T02:37:22.235Z,79.24
2018-09-08T02:39:58.390Z,79.27
2018-09-08T02:42:34.161Z,79.04
2018-09-08T02:45:09.986Z,79.05
2018-09-08T02:47:45.903Z,77.76
2018-09-08T02:50:39.302Z,78.74
2018-09-08T02:53:14.577Z,78.07
2018-09-08T02:55:49.053Z,78.84
2018-09-08T02:58:23.241Z,80.11
2018-09-08T03:00:57.711Z,81.68
2018-09-08T03:03:32.786Z,82.18
2018-09-08T03:06:07.057Z,84.21
2018-09-08T03:08:41.196Z,84.32
2018-09-08T03:11:15.552Z,84.48
2018-09-08T03:13:50.043Z,84.02
2018-09-08T03:16:24.464Z,83.48
2018-09-08T03:18:58.777Z,83.21
2018-09-08T03:21:33.173Z,85.05
2018-09-08T03:24:07.508Z,84.75
2018-09-08T03:26:41.887Z,83.89
2018-09-08T03:29:16.189Z,83.61
2018-09-08T03:31:53.479Z,82.19
2018-09-08T03:34:27.791Z,80.62
2018-09-08T03:37:02.212Z,81.11
2018-09-08T03:39:39.164Z,81.63
2018-09-08T03:42:13.981Z,80.83
2018-09-08T03:44:48.269Z,80.51
2018-09-08T03:47:22.618Z,79.10
2018-09-08T03:49:57.024Z,77.71
2018-09-08T03:52:31.278Z,78.69
2018-09-08T03:55:05.504Z,80.07
2018-09-08T03:57:39.888Z,79.71
2018-09-08T04:00:14.269Z,80.60
2018-09-08T04:02:49.918Z,81.49
2018-09-08T04:05:25.819Z,81.12
2018-09-08T04:08:01.711Z,80.86
2018-09-08T04:10:37.473Z,80.08
2018-09-08T04:13:13.418Z,79.65
2018-09-08T04:15:49.293Z,80.85
2018-09-08T04:18:25.010Z,81.61
2018-09-08T04:21:00.778Z,83.45
2018-09-08T04:23:37.149Z,83.66
2018-09-08T04:26:12.929Z,83.54
2018-09-08T04:28:48.867Z,83.31
2018-09-08T04:31:24.534Z,84.41
2018-09-08T04:34:00.394Z,85.09
2018-09-08T04:36:35.958Z,85.02
2018-09-08T04:39:12.309Z,83.76
2018-09-08T04:41:48.103Z,81.57
2018-09-08T04:44:23.788Z,79.27
2018-09-08T04:47:00.253Z,78.27
2018-09-08T04:49:35.939Z,77.74
2018-09-08T04:52:11.503Z,75.72
2018-09-08T04:54:47.234Z,74.80
2018-09-08T04:57:23.102Z,73.62
2018-09-08T04:59:58.962Z,73.29
2018-09-08T05:02:35.747Z,73.38
2018-09-08T05:05:11.865Z,72.26
2018-09-08T05:07:47.840Z,70.27
2018-09-08T05:10:24.367Z,68.81
2018-09-08T05:13:00.220Z,68.51
2018-09-08T05:15:35.829Z,67.15
2018-09-08T05:18:11.789Z,66.74
2018-09-08T05:20:47.472Z,68.30
2018-09-08T05:23:23.230Z,69.76
2018-09-08T05:25:59.789Z,70.29
2018-09-08T05:28:36.520Z,70.51
2018-09-08T05:31:12.555Z,69.89
2018-09-08T05:33:48.670Z,70.69
2018-09-08T05:36:24.583Z,70.36
2018-09-08T05:39:00.672Z,71.12
2018-09-08T05:41:36.515Z,69.87
2018-09-08T05:44:12.773Z,71.32
2018-09-08T05:46:49.052Z,73.49
2018-09-08T05:49:24.928Z,73.71
2018-09-08T05:52:02.553Z,72.70
2018-09-08T05:54:38.267Z,69.43
2018-09-08T05:57:14.979Z,67.19
2018-09-08T05:59:45.979Z,66.07
2018-09-08T06:02:16.887Z,64.30
2018-09-08T06:04:47.789Z,63.62
2018-09-08T06:07:18.709Z,63.47
2018-09-08T06:09:50.469Z,63.31
2018-09-08T06:12:21.901Z,64.64
2018-09-08T06:14:52.872Z,64.65
2018-09-08T06:17:23.744Z,64.03
2018-09-08T06:19:54.723Z,64.30
2018-09-08T06:22:25.828Z,63.91
2018-09-08T06:24:56.791Z,62.08
2018-09-08T06:27:27.677Z,61.86
2018-09-08T06:29:58.744Z,62.79
2018-09-08T06:32:29.793Z,63.30
2018-09-08T06:35:01.164Z,62.79
2018-09-08T06:37:32.969Z,59.82
2018-09-08T06:40:03.949Z,59.17
2018-09-08T06:42:35.351Z,57.81
2018-09-08T06:45:06.299Z,57.11
2018-09-08T06:47:38.092Z,56.38
2018-09-08T06:50:08.931Z,55.70
2018-09-08T06:52:39.753Z,55.70
2018-09-08T06:55:10.573Z,55.63
2018-09-08T06:57:41.587Z,56.98
2018-09-08T07:00:12.678Z,58.39
2018-09-08T07:02:44.739Z,56.08
2018-09-08T07:05:21.991Z,56.42
2018-09-08T07:07:53.317Z,54.41
2018-09-08T07:10:24.122Z,54.68
2018-09-08T07:12:55.257Z,54.23
2018-09-08T07:15:26.165Z,52.64
2018-09-08T07:18:00.356Z,51.06
2018-09-08T07:20:31.167Z,50.59
2018-09-08T07:23:02.064Z,50.62
2018-09-08T07:25:33.132Z,49.73
2018-09-08T07:28:04.251Z,49.26
2018-09-08T07:30:35.054Z,48.94
2018-09-08T07:33:05.953Z,49.14
2018-09-08T07:35:37.960Z,48.74
2018-09-08T07:38:08.902Z,49.22
2018-09-08T07:40:39.727Z,48.21
2018-09-08T07:43:11.188Z,48.43
2018-09-08T07:45:43.263Z,48.63
2018-09-08T07:48:14.705Z,47.70
2018-09-08T07:50:45.468Z,46.16
2018-09-08T07:53:16.827Z,46.45
2018-09-08T07:55:47.736Z,46.42
2018-09-08T07:58:18.663Z,44.75
2018-09-08T08:00:49.554Z,44.93
2018-09-08T08:03:20.574Z,45.59
2018-09-08T08:05:51.379Z,44.35
2018-09-08T08:08:22.293Z,44.60
2018-09-08T08:10:53.051Z,45.47
2018-09-08T08:13:23.822Z,46.43
2018-09-08T08:15:54.765Z,46.79
2018-09-08T08:18:26.276Z,46.45
2018-09-08T08:20:57.264Z,48.20
2018-09-08T08:23:28.145Z,47.21
2018-09-08T08:25:58.897Z,47.27
2018-09-08T08:28:29.766Z,46.85
2018-09-08T08:31:00.820Z,45.93
2018-09-08T08:33:31.793Z,45.98
2018-09-08T08:36:02.706Z,45.49
2018-09-08T08:38:33.679Z,44.70
2018-09-08T08:41:04.699Z,43.51
2018-09-08T08:43:36.097Z,42.24
2018-09-08T08:46:06.938Z,42.29
2018-09-08T08:48:37.747Z,42.44
2018-09-08T08:51:19.281Z,44.09
2018-09-08T08:54:01.004Z,43.88
2018-09-08T08:56:32.202Z,43.08
2018-09-08T08:59:02.991Z,42.88
2018-09-08T09:01:33.937Z,41.65
2018-09-08T09:04:04.792Z,42.26
2018-09-08T09:06:36.022Z,42.42
2018-09-08T09:09:11.665Z,42.23
2018-09-08T09:11:42.787Z,42.19
2018-09-08T09:14:14.650Z,42.66
2018-09-08T09:16:46.446Z,40.29
2018-09-08T09:19:39.282Z,40.25
2018-09-08T09:22:23.174Z,41.55
2018-09-08T09:24:58.332Z,41.05
2018-09-08T09:27:31.108Z,40.20
2018-09-08T09:30:02.515Z,40.48
2018-09-08T09:32:33.673Z,39.98
2018-09-08T09:35:04.638Z,41.79
2018-09-08T09:37:35.395Z,40.93
2018-09-08T09:40:07.866Z,40.49
2018-09-08T09:42:38.623Z,41.55
2018-09-08T09:45:10.090Z,40.02
2018-09-08T09:47:41.744Z,40.51
2018-09-08T09:50:13.298Z,40.19
2018-09-08T09:52:44.103Z,40.69
2018-09-08T09:55:14.928Z,41.25
2018-09-08T09:57:46.699Z,40.17
2018-09-08T10:00:22.765Z,40.01
2018-09-08T10:02:58.511Z,40.23
2018-09-08T10:05:30.093Z,40.33
2018-09-08T10:08:01.289Z,39.34
2018-09-08T10:10:32.195Z,39.73
2018-09-08T10:13:03.553Z,40.19
2018-09-08T10:15:34.615Z,40.37
2018-09-08T10:18:05.367Z,41.86
2018-09-08T10:20:41.084Z,41.55
2018-09-08T10:23:12.134Z,43.64
2018-09-08T10:25:44.493Z,43.91
2018-09-08T10:28:15.388Z,43.26
2018-09-08T10:30:46.525Z,43.85
2018-09-08T10:33:17.327Z,44.42
2018-09-08T10:35:48.099Z,41.26
2018-09-08T10:38:18.930Z,41.74
2018-09-08T10:40:49.859Z,39.81
2018-09-08T10:43:20.687Z,39.06
2018-09-08T10:45:51.581Z,40.43
2018-09-08T10:48:22.370Z,38.14
2018-09-08T10:50:54.664Z,38.39
2018-09-08T10:53:26.050Z,36.63
2018-09-08T10:55:57.933Z,34.41
2018-09-08T10:58:30.384Z,35.23
2018-09-08T11:01:02.074Z,34.13
2018-09-08T11:03:32.839Z,33.31
2018-09-08T11:06:03.646Z,33.51
2018-09-08T11:08:34.545Z,35.12
2018-09-08T11:11:05.382Z,34.38
2018-09-08T11:13:36.109Z,33.02
2018-09-08T11:16:06.895Z,32.51
2018-09-08T11:18:37.833Z,32.26
2018-09-08T11:21:08.732Z,32.66
2018-09-08T11:23:40.229Z,32.96
2018-09-08T11:26:11.064Z,32.66
2018-09-08T11:30:06.761Z,33.15
2018-09-08T11:32:37.558Z,32.49
2018-09-08T11:35:11.307Z,31.53
2018-09-08T11:37:42.783Z,31.26
2018-09-08T11:40:15.096Z,30.38
2018-09-08T11:43:09.971Z,32.52
2018-09-08T11:45:40.818Z,30.71
2018-09-08T11:48:12.418Z,32.78
2018-09-08T11:50:44.295Z,33.54
2018-09-08T11:53:15.927Z,33.17
2018-09-08T11:55:46.999Z,34.06
2018-09-08T11:58:21.825Z,32.89
2018-09-08T12:00:53.108Z,33.17
2018-09-08T12:03:24.214Z,32.57
2018-09-08T12:05:55.122Z,31.10
2018-09-08T12:08:25.988Z,30.00
2018-09-08T12:10:57.660Z,30.92
2018-09-08T12:13:28.502Z,31.37
2018-09-08T12:15:59.601Z,30.11
2018-09-08T12:18:30.468Z,29.36
2018-09-08T12:21:01.545Z,28.83
2018-09-08T12:23:32.495Z,28.66
2018-09-08T12:26:03.304Z,27.95
2018-09-08T12:28:34.190Z,28.40
2018-09-08T12:31:05.087Z,27.35
2018-09-08T12:33:40.188Z,26.67
2018-09-08T12:36:11.306Z,26.19
2018-09-08T12:38:42.607Z,25.60
2018-09-08T12:41:13.626Z,25.96
2018-09-08T12:43:44.548Z,25.55
2018-09-08T12:46:15.730Z,24.85
2018-09-08T12:48:46.708Z,25.69
2018-09-08T12:51:18.097Z,27.22
2018-09-08T12:53:50.945Z,27.62
2018-09-08T12:56:23.670Z,27.96
2018-09-08T12:58:54.589Z,28.36
2018-09-08T13:01:26.940Z,29.16
2018-09-08T13:03:57.870Z,29.49
2018-09-08T13:06:29.343Z,28.55
2018-09-08T13:09:00.104Z,28.51
2018-09-08T13:11:31.457Z,30.29
2018-09-08T13:14:02.227Z,30.84
2018-09-08T13:16:33.955Z,30.71
2018-09-08T13:19:04.841Z,31.92
2018-09-08T13:21:37.585Z,32.06
2018-09-08T13:24:09.778Z,38.33
2018-09-08T13:29:11.433Z,40.63
2018-09-08T13:31:42.649Z,40.24
2018-09-08T13:34:15.030Z,39.65
2018-09-08T13:36:46.721Z,39.04
2018-09-08T13:39:17.499Z,40.05
2018-09-08T13:41:50.051Z,41.14
2018-09-08T13:44:21.419Z,40.07
2018-09-08T13:46:53.207Z,39.49
2018-09-08T13:49:24.192Z,41.29
2018-09-08T13:51:55.051Z,41.00
2018-09-08T13:54:25.974Z,42.63
2018-09-08T13:57:08.955Z,52.67
2018-09-08T13:59:39.958Z,55.09
2018-09-08T14:02:13.193Z,59.78
2018-09-08T14:04:44.422Z,62.62
2018-09-08T14:07:28.744Z,64.80
2018-09-08T14:10:01.485Z,67.30
2018-09-08T14:12:37.029Z,68.89
2018-09-08T14:15:08.134Z,71.98
2018-09-08T14:17:40.134Z,70.78
2018-09-08T14:20:17.463Z,69.85
2018-09-08T14:22:50.938Z,64.12
2018-09-08T14:25:23.100Z,67.14
2018-09-08T14:27:54.499Z,71.16
2018-09-08T14:30:26.690Z,65.73
2018-09-08T14:32:57.532Z,67.46
2018-09-08T14:35:28.321Z,67.95
2018-09-08T14:37:59.157Z,67.29
2018-09-08T14:40:30.269Z,63.01
2018-09-08T14:43:03.855Z,58.86
2018-09-08T14:45:34.683Z,55.99
2018-09-08T14:48:08.964Z,53.74
2018-09-08T14:50:39.728Z,52.02
2018-09-08T14:53:10.526Z,53.41
2018-09-08T14:55:41.281Z,58.71
2018-09-08T14:58:13.031Z,59.78
2018-09-08T15:00:43.848Z,61.03
2018-09-08T15:03:14.787Z,60.39
2018-09-08T15:05:45.960Z,64.51
2018-09-08T15:08:18.259Z,65.13
2018-09-08T15:10:49.090Z,66.88
2018-09-08T15:13:20.463Z,68.82
2018-09-08T15:15:51.645Z,68.36
2018-09-08T15:18:22.477Z,67.42
2018-09-08T15:20:53.287Z,67.89
2018-09-08T15:23:24.958Z,67.59
2018-09-08T15:25:55.805Z,68.74
2018-09-08T15:28:27.022Z,69.14
2018-09-08T15:30:58.191Z,70.93
2018-09-08T15:33:34.691Z,71.73
2018-09-08T15:36:06.805Z,72.69
2018-09-08T15:38:37.874Z,73.73
2018-09-08T15:41:08.951Z,73.97
2018-09-08T15:43:43.287Z,73.87
2018-09-08T15:46:25.019Z,73.26
2018-09-08T15:49:00.470Z,71.97
2018-09-08T15:51:31.944Z,72.59
2018-09-08T15:54:03.833Z,72.61
2018-09-08T15:56:34.752Z,72.13
2018-09-08T15:59:05.676Z,73.67
2018-09-08T16:01:36.451Z,70.58
2018-09-08T16:04:07.348Z,72.09
2018-09-08T16:06:39.358Z,73.64
2018-09-08T16:09:10.182Z,72.08
2018-09-08T16:11:40.990Z,71.92
2018-09-08T16:14:11.913Z,73.53
2018-09-08T16:18:07.299Z,72.72
2018-09-08T16:20:38.233Z,74.70
2018-09-08T16:23:10.109Z,74.26
2018-09-08T16:25:41.457Z,72.40
2018-09-08T16:28:12.338Z,72.11
2018-09-08T16:30:44.977Z,71.45
2018-09-08T16:33:16.043Z,72.51
2018-09-08T16:35:46.957Z,73.20
2018-09-08T16:38:19.124Z,72.99
2018-09-08T16:40:50.559Z,74.27
2018-09-08T16:43:21.413Z,77.51
2018-09-08T16:45:52.696Z,79.74
2018-09-08T16:48:23.472Z,80.25
2018-09-08T16:50:55.490Z,78.69
2018-09-08T16:53:26.470Z,80.14
2018-09-08T16:55:57.336Z,81.30
2018-09-08T16:58:28.217Z,81.83
2018-09-08T17:00:59.209Z,82.57
2018-09-08T17:03:30.476Z,82.17
2018-09-08T17:06:01.302Z,83.03
2018-09-08T17:08:32.102Z,83.85
2018-09-08T17:11:02.909Z,84.50
2018-09-08T17:13:33.937Z,84.66
2018-09-08T17:16:04.755Z,84.25
2018-09-08T17:18:36.057Z,84.80
2018-09-08T17:21:07.273Z,85.10
2018-09-08T17:23:38.106Z,84.59
2018-09-08T17:26:08.937Z,84.90
2018-09-08T17:28:40.100Z,85.61
2018-09-08T17:31:10.928Z,84.76
2018-09-08T17:33:41.699Z,84.38
2018-09-08T17:36:12.651Z,85.16
2018-09-08T17:38:43.460Z,84.91
2018-09-08T17:41:14.376Z,83.89
2018-09-08T17:43:45.161Z,84.06
2018-09-08T17:46:21.833Z,84.62
2018-09-08T17:48:52.616Z,87.55
2018-09-08T17:51:23.516Z,89.40
2018-09-08T17:53:54.368Z,91.73
2018-09-08T17:56:25.321Z,92.85
2018-09-08T17:58:56.785Z,92.61
2018-09-08T18:01:27.878Z,92.43
2018-09-08T18:03:59.434Z,92.90
2018-09-08T18:06:30.269Z,93.30
2018-09-08T18:09:01.501Z,92.20
2018-09-08T18:11:32.499Z,90.28
2018-09-08T18:14:03.368Z,88.36
2018-09-08T18:16:34.290Z,88.10
2018-09-08T18:19:05.397Z,88.93
2018-09-08T18:21:36.217Z,88.43
2018-09-08T18:24:06.496Z,88.73
2018-09-08T18:26:37.332Z,88.21
2018-09-08T18:29:08.490Z,88.17
2018-09-08T18:31:39.413Z,87.19
2018-09-08T18:34:10.201Z,86.54
2018-09-08T18:36:41.092Z,87.05
2018-09-08T18:39:12.941Z,87.33
2018-09-08T18:41:43.992Z,87.46
2018-09-08T18:44:14.763Z,87.16
2018-09-08T18:46:45.781Z,86.87
2018-09-08T18:49:16.547Z,87.32
2018-09-08T18:51:47.796Z,86.48
2018-09-08T18:54:18.546Z,87.06
2018-09-08T18:56:52.520Z,87.70
2018-09-08T18:59:28.590Z,89.90
2018-09-08T19:01:59.409Z,90.34
2018-09-08T19:04:30.924Z,90.57
2018-09-08T19:07:06.644Z,91.00
2018-09-08T19:09:40.565Z,90.58
2018-09-08T19:12:12.983Z,90.64
2018-09-08T19:14:50.409Z,89.60
2018-09-08T19:17:21.407Z,88.87
2018-09-08T19:19:57.010Z,88.49
2018-09-08T19:22:28.175Z,87.89
2018-09-08T19:24:59.519Z,87.18
2018-09-08T19:27:31.150Z,87.89
2018-09-08T19:30:04.235Z,87.72
2018-09-08T19:35:41.652Z,88.81
2018-09-08T19:38:30.661Z,87.67
2018-09-08T19:48:43.785Z,89.49
2018-09-08T20:41:40.126Z,95.40
2018-09-08T20:44:16.204Z,96.89
2018-09-08T20:46:51.967Z,97.32
2018-09-08T20:49:28.556Z,95.62
2018-09-08T20:52:04.265Z,96.26
2018-09-08T20:54:40.131Z,97.11
2018-09-08T20:57:15.996Z,95.35
2018-09-08T20:59:51.920Z,93.80
2018-09-08T21:02:27.829Z,93.74
2018-09-08T21:05:03.743Z,92.92
2018-09-08T21:07:39.729Z,93.52
2018-09-08T21:10:16.457Z,93.61
2018-09-08T21:12:53.014Z,92.42
2018-09-08T21:15:28.976Z,91.30
2018-09-08T21:18:04.613Z,90.69
2018-09-08T21:20:40.343Z,90.79
2018-09-08T21:23:16.470Z,90.78
2018-09-08T21:25:52.192Z,90.87
2018-09-08T21:28:28.074Z,90.79
2018-09-08T21:31:03.954Z,90.32
2018-09-08T21:33:39.769Z,89.79
2018-09-08T21:36:15.483Z,90.02
2018-09-08T21:38:51.220Z,91.90
2018-09-08T21:41:28.313Z,90.88
2018-09-08T21:44:04.389Z,91.80
2018-09-08T21:46:40.242Z,91.32
2018-09-08T21:49:17.307Z,90.90
2018-09-08T21:51:53.232Z,92.13
2018-09-08T21:54:28.165Z,92.64
2018-09-08T21:57:03.013Z,93.01
2018-09-08T22:19:57.793Z,91.74
2018-09-08T22:22:32.500Z,91.72
2018-09-08T22:25:07.368Z,92.57
2018-09-08T22:27:42.303Z,93.05
2018-09-08T22:30:17.501Z,93.44
2018-09-08T22:32:52.341Z,94.52
2018-09-08T22:35:27.477Z,94.99
2018-09-08T22:38:02.186Z,95.59
2018-09-08T22:40:36.930Z,96.51
2018-09-08T22:43:11.737Z,96.22
2018-09-08T22:45:47.206Z,95.45
2018-09-08T22:48:21.859Z,93.23
2018-09-08T22:50:56.619Z,93.69
2018-09-08T22:53:31.304Z,93.74
2018-09-08T22:56:06.380Z,94.35
2018-09-08T22:58:41.237Z,93.46
2018-09-08T23:01:15.962Z,93.45
2018-09-08T23:03:50.694Z,93.42
2018-09-08T23:06:25.472Z,93.62
2018-09-08T23:09:00.394Z,94.29
2018-09-08T23:11:35.166Z,93.67
2018-09-08T23:14:09.874Z,92.61
2018-09-08T23:16:44.701Z,92.67
2018-09-08T23:19:19.449Z,90.04
2018-09-08T23:21:54.222Z,89.54
2018-09-08T23:24:28.942Z,90.83
2018-09-08T23:27:03.770Z,92.48
2018-09-08T23:29:38.758Z,92.45
2018-09-08T23:32:13.600Z,91.64
2018-09-08T23:34:48.378Z,91.43
2018-09-08T23:37:23.114Z,91.13
2018-09-08T23:39:57.912Z,91.77
2018-09-08T23:42:33.085Z,91.99
2018-09-08T23:45:07.865Z,92.42
2018-09-08T23:47:42.761Z,92.57
2018-09-08T23:50:17.601Z,92.64
2018-09-08T23:52:52.726Z,90.55
2018-09-08T23:55:27.618Z,90.88
2018-09-08T23:58:02.354Z,92.93
